createdAt,value
2022-08-28T00:01:28.601Z,86.13
2022-08-28T00:03:56.108Z,105.57
2022-08-28T00:06:24.967Z,131.98
2022-08-28T00:08:52.497Z,115.18
2022-08-28T00:11:21.056Z,135.15
2022-08-28T00:13:48.943Z,113.03
2022-08-28T00:16:17.995Z,131.63
2022-08-28T00:18:47.067Z,113.75
2022-08-28T00:21:15.068Z,126.95
2022-08-28T00:23:43.912Z,132.45
2022-08-28T00:26:31.723Z,126.47
2022-08-28T00:28:58.247Z,119.15
2022-08-28T00:31:25.754Z,114.28
2022-08-28T00:33:53.319Z,124.82
2022-08-28T00:36:20.871Z,117.75
2022-08-28T00:38:49.675Z,112.95
2022-08-28T00:41:17.424Z,126.70
2022-08-28T00:43:52.332Z,109.03
2022-08-28T00:46:22.849Z,122.80
2022-08-28T00:48:51.373Z,124.15
2022-08-28T00:51:35.091Z,113.90
2022-08-28T00:54:07.527Z,109.65
2022-08-28T00:56:35.747Z,135.85
2022-08-28T00:59:08.925Z,97.72
2022-08-28T01:01:38.738Z,103.05
2022-08-28T01:04:06.678Z,120.50
2022-08-28T01:06:34.563Z,111.90
2022-08-28T01:09:02.150Z,101.97
2022-08-28T01:11:32.312Z,118.72
2022-08-28T01:14:03.225Z,118.43
2022-08-28T01:16:34.284Z,98.90
2022-08-28T01:19:03.397Z,125.50
2022-08-28T01:21:40.233Z,104.82
2022-08-28T01:24:12.070Z,122.55
2022-08-28T01:26:39.605Z,118.65
2022-08-28T01:29:08.454Z,86.50
2022-08-28T01:31:38.504Z,111.85
2022-08-28T01:34:06.815Z,103.18
2022-08-28T01:36:34.652Z,76.32
2022-08-28T01:39:05.934Z,103.82
2022-08-28T01:41:35.444Z,69.25
2022-08-28T01:44:03.042Z,107.20
2022-08-28T01:46:31.651Z,97.80
2022-08-28T01:48:59.473Z,106.13
2022-08-28T01:51:28.512Z,67.90
2022-08-28T01:54:02.629Z,113.68
2022-08-28T01:56:30.756Z,110.05
2022-08-28T01:58:59.795Z,117.78
2022-08-28T02:01:27.333Z,91.57
2022-08-28T02:03:55.058Z,80.47
2022-08-28T02:06:23.012Z,100.22
2022-08-28T02:08:54.620Z,126.55
2022-08-28T02:11:23.803Z,116.88
2022-08-28T02:13:52.322Z,85.20
2022-08-28T02:16:23.196Z,121.00
2022-08-28T02:18:50.723Z,79.20
2022-08-28T02:21:18.232Z,87.90
2022-08-28T02:23:46.189Z,92.88
2022-08-28T02:26:15.252Z,99.43
2022-08-28T02:28:43.311Z,127.72
2022-08-28T02:31:11.684Z,118.25
2022-08-28T02:33:43.495Z,136.50
2022-08-28T02:36:13.182Z,118.57
2022-08-28T02:38:41.160Z,106.82
2022-08-28T02:41:10.052Z,96.47
2022-08-28T02:43:37.659Z,97.88
2022-08-28T02:46:06.270Z,103.75
2022-08-28T02:48:36.498Z,83.13
2022-08-28T02:51:08.987Z,113.32
2022-08-28T02:53:37.423Z,85.53
2022-08-28T02:56:05.995Z,74.30
2022-08-28T02:58:34.545Z,106.95
2022-08-28T03:01:03.430Z,90.85
2022-08-28T03:03:32.450Z,77.95
2022-08-28T03:06:00.610Z,94.18
2022-08-28T03:08:30.071Z,102.30
2022-08-28T03:10:57.629Z,89.40
2022-08-28T03:13:27.269Z,96.22
2022-08-28T03:15:56.236Z,102.43
2022-08-28T03:18:25.287Z,106.22
2022-08-28T03:20:53.748Z,99.18
2022-08-28T03:23:26.305Z,112.38
2022-08-28T03:25:56.501Z,102.45
2022-08-28T03:28:25.007Z,82.80
2022-08-28T03:30:52.655Z,101.40
2022-08-28T03:33:21.279Z,95.55
2022-08-28T03:35:49.213Z,95.10
2022-08-28T03:38:17.157Z,116.18
2022-08-28T03:40:46.744Z,82.38
2022-08-28T03:43:18.845Z,62.17
2022-08-28T03:45:58.749Z,78.95
2022-08-28T03:48:28.484Z,80.07
2022-08-28T03:50:57.304Z,75.25
2022-08-28T03:53:27.491Z,86.35
2022-08-28T03:55:56.213Z,77.22
2022-08-28T03:58:26.449Z,90.72
2022-08-28T04:00:54.512Z,86.03
2022-08-28T04:03:22.463Z,89.90
2022-08-28T04:05:49.990Z,95.57
2022-08-28T04:08:19.404Z,88.30
2022-08-28T04:10:48.505Z,78.10
2022-08-28T04:13:17.826Z,90.80
2022-08-28T04:15:47.153Z,109.97
2022-08-28T04:18:14.922Z,99.93
2022-08-28T04:20:42.556Z,114.03
2022-08-28T04:23:14.098Z,77.00
2022-08-28T04:25:41.744Z,126.13
2022-08-28T04:28:09.294Z,102.63
2022-08-28T04:30:36.839Z,81.43
2022-08-28T04:33:06.130Z,101.45
2022-08-28T04:35:33.670Z,92.45
2022-08-28T04:38:02.528Z,99.43
2022-08-28T04:40:33.009Z,89.95
2022-08-28T04:43:00.536Z,98.30
2022-08-28T04:45:28.084Z,88.65
2022-08-28T04:47:55.628Z,89.38
2022-08-28T04:50:25.247Z,84.80
2022-08-28T04:52:53.167Z,110.38
2022-08-28T04:55:40.080Z,100.50
2022-08-28T04:58:08.256Z,98.80
2022-08-28T05:00:37.799Z,68.20
2022-08-28T05:03:05.717Z,92.25
2022-08-28T05:05:35.016Z,114.45
2022-08-28T05:08:02.649Z,108.35
2022-08-28T05:10:30.492Z,96.82
2022-08-28T05:12:57.960Z,100.55
2022-08-28T05:15:25.459Z,84.50
2022-08-28T05:17:52.961Z,96.72
2022-08-28T05:20:20.453Z,97.07
2022-08-28T05:22:49.317Z,89.50
2022-08-28T05:25:17.015Z,93.70
2022-08-28T05:27:44.482Z,81.25
2022-08-28T05:30:13.115Z,114.95
2022-08-28T05:32:43.040Z,104.75
2022-08-28T05:35:10.723Z,91.53
2022-08-28T05:37:38.180Z,101.28
2022-08-28T05:40:10.479Z,77.90
2022-08-28T05:42:39.151Z,95.30
2022-08-28T05:45:08.060Z,106.07
2022-08-28T05:47:35.654Z,73.80
2022-08-28T05:50:03.165Z,101.88
2022-08-28T05:52:30.651Z,92.88
2022-08-28T05:54:58.534Z,106.68
2022-08-28T05:57:27.363Z,89.18
2022-08-28T05:59:54.838Z,100.63
2022-08-28T06:02:22.646Z,106.60
2022-08-28T06:04:50.256Z,76.03
2022-08-28T06:07:18.088Z,94.88
2022-08-28T06:09:45.746Z,85.72
2022-08-28T06:12:13.665Z,100.47
2022-08-28T06:14:43.401Z,65.63
2022-08-28T06:17:12.477Z,86.28
2022-08-28T06:19:41.687Z,74.57
2022-08-28T06:22:12.047Z,59.63
2022-08-28T06:24:39.693Z,59.42
2022-08-28T06:27:07.186Z,60.83
2022-08-28T06:29:34.750Z,65.03
2022-08-28T06:32:05.393Z,48.95
2022-08-28T06:34:33.140Z,61.03
2022-08-28T06:37:00.862Z,85.28
2022-08-28T06:39:28.376Z,75.40
2022-08-28T06:41:55.902Z,70.10
2022-08-28T06:44:23.916Z,86.68
2022-08-28T06:46:53.891Z,97.53
2022-08-28T06:49:22.777Z,103.93
2022-08-28T06:51:50.377Z,109.28
2022-08-28T06:54:22.941Z,120.93
2022-08-28T06:56:51.255Z,104.28
2022-08-28T06:59:18.821Z,114.18
2022-08-28T07:01:46.345Z,110.55
2022-08-28T07:04:14.439Z,88.63
2022-08-28T07:06:46.902Z,103.43
2022-08-28T07:09:15.250Z,103.20
2022-08-28T07:11:46.487Z,105.32
2022-08-28T07:14:14.042Z,105.75
2022-08-28T07:16:41.740Z,111.22
2022-08-28T07:19:11.954Z,102.32
2022-08-28T07:21:41.638Z,102.53
2022-08-28T07:24:12.884Z,117.05
2022-08-28T07:26:41.802Z,105.32
2022-08-28T07:29:11.438Z,93.07
2022-08-28T07:31:41.104Z,102.63
2022-08-28T07:34:09.646Z,78.57
2022-08-28T07:36:37.728Z,111.75
2022-08-28T07:39:05.996Z,85.28
2022-08-28T07:41:39.009Z,89.28
2022-08-28T07:44:24.332Z,66.63
2022-08-28T07:46:54.858Z,84.65
2022-08-28T07:49:22.765Z,69.68
2022-08-28T07:51:50.373Z,70.05
2022-08-28T07:54:21.949Z,66.53
2022-08-28T07:56:51.572Z,67.53
2022-08-28T07:59:20.168Z,70.55
2022-08-28T08:01:50.647Z,69.95
2022-08-28T08:04:19.928Z,80.43
2022-08-28T08:06:47.825Z,107.00
2022-08-28T08:09:17.660Z,68.65
2022-08-28T08:11:45.833Z,96.82
2022-08-28T08:14:16.408Z,98.57
2022-08-28T08:16:46.939Z,109.13
2022-08-28T08:19:15.310Z,100.07
2022-08-28T08:21:44.447Z,84.25
2022-08-28T08:24:19.716Z,87.30
2022-08-28T08:26:56.566Z,110.03
2022-08-28T08:29:32.206Z,102.07
2022-08-28T08:32:05.266Z,82.90
2022-08-28T08:34:33.836Z,111.53
2022-08-28T08:37:01.569Z,108.38
2022-08-28T08:39:29.255Z,97.78
2022-08-28T08:42:00.744Z,87.50
2022-08-28T08:44:33.485Z,107.60
2022-08-28T08:47:13.797Z,92.68
2022-08-28T08:49:48.340Z,75.47
2022-08-28T08:52:28.191Z,98.13
2022-08-28T08:55:07.109Z,57.97
2022-08-28T08:57:37.004Z,81.85
2022-08-28T09:00:11.190Z,95.82
2022-08-28T09:02:46.265Z,67.13
2022-08-28T09:05:19.048Z,66.05
2022-08-28T09:07:56.660Z,62.00
2022-08-28T09:10:26.579Z,79.13
2022-08-28T09:12:58.172Z,94.30
2022-08-28T09:15:32.077Z,56.08
2022-08-28T09:18:12.065Z,62.30
2022-08-28T09:20:39.950Z,51.08
2022-08-28T09:23:13.407Z,67.63
2022-08-28T09:25:59.757Z,55.45
2022-08-28T09:28:32.456Z,40.20
2022-08-28T09:31:07.398Z,56.45
2022-08-28T09:33:41.703Z,48.25
2022-08-28T09:36:29.888Z,57.67
2022-08-28T09:39:13.754Z,43.17
2022-08-28T09:42:14.885Z,59.03
2022-08-28T09:44:52.056Z,47.60
2022-08-28T09:47:48.778Z,52.65
2022-08-28T09:50:26.180Z,106.03
2022-08-28T09:52:58.874Z,52.33
2022-08-28T09:55:34.745Z,61.58
2022-08-28T09:58:04.942Z,50.00
2022-08-28T10:00:37.860Z,47.13
2022-08-28T10:03:15.461Z,46.75
2022-08-28T10:05:55.301Z,39.72
2022-08-28T10:08:37.103Z,65.72
2022-08-28T10:11:15.465Z,35.35
2022-08-28T10:14:03.438Z,69.22
2022-08-28T10:16:41.600Z,46.00
2022-08-28T10:19:23.379Z,67.07
2022-08-28T10:22:04.984Z,99.72
2022-08-28T10:24:48.056Z,69.85
2022-08-28T10:27:33.540Z,54.40
2022-08-28T10:30:11.286Z,36.60
2022-08-28T10:32:52.458Z,32.40
2022-08-28T10:35:25.387Z,29.65
2022-08-28T10:38:01.577Z,27.35
2022-08-28T10:40:34.669Z,24.98
2022-08-28T10:43:06.908Z,23.80
2022-08-28T10:45:35.724Z,60.47
2022-08-28T10:48:10.167Z,40.80
2022-08-28T10:50:45.124Z,32.10
2022-08-28T10:53:16.480Z,44.00
2022-08-28T10:55:52.310Z,36.15
2022-08-28T10:58:24.312Z,58.85
2022-08-28T11:00:56.090Z,38.25
2022-08-28T11:03:35.026Z,39.20
2022-08-28T11:06:11.241Z,50.00
2022-08-28T11:08:40.525Z,44.08
2022-08-28T11:11:14.342Z,34.22
2022-08-28T11:13:47.687Z,23.27
2022-08-28T11:16:21.429Z,45.75
2022-08-28T11:19:20.416Z,56.00
2022-08-28T11:21:52.982Z,36.65
2022-08-28T11:24:32.849Z,31.65
2022-08-28T11:27:12.980Z,26.65
2022-08-28T11:30:04.914Z,19.08
2022-08-28T11:32:56.062Z,45.88
2022-08-28T11:35:53.590Z,39.10
2022-08-28T11:39:13.417Z,43.70
2022-08-28T11:42:32.033Z,34.70
2022-08-28T11:44:59.734Z,37.83
2022-08-28T11:47:56.653Z,38.15
2022-08-28T11:50:32.090Z,22.95
2022-08-28T11:53:44.214Z,34.28
2022-08-28T11:56:45.464Z,54.08
2022-08-28T11:59:35.037Z,51.42
2022-08-28T12:02:36.896Z,57.22
2022-08-28T12:05:06.222Z,52.75
2022-08-28T12:07:36.647Z,27.75
2022-08-28T12:10:44.572Z,33.70
2022-08-28T12:13:48.973Z,50.03
2022-08-28T12:16:16.719Z,52.30
2022-08-28T12:19:01.140Z,55.85
2022-08-28T12:21:31.024Z,42.97
2022-08-28T12:24:07.341Z,33.20
2022-08-28T12:26:44.517Z,28.63
2022-08-28T12:29:31.544Z,27.50
2022-08-28T12:32:18.889Z,22.00
2022-08-28T12:34:50.330Z,35.25
2022-08-28T12:37:39.503Z,35.70
2022-08-28T12:40:22.938Z,37.33
2022-08-28T12:42:55.483Z,39.78
2022-08-28T12:45:28.795Z,22.25
2022-08-28T12:48:00.045Z,23.52
2022-08-28T12:50:31.572Z,28.02
2022-08-28T12:53:06.333Z,28.15
2022-08-28T12:55:34.872Z,21.15
2022-08-28T12:58:02.568Z,17.35
2022-08-28T13:00:35.658Z,21.65
2022-08-28T13:03:08.088Z,32.40
2022-08-28T13:05:39.630Z,30.92
2022-08-28T13:08:10.695Z,21.65
2022-08-28T13:10:41.364Z,21.65
2022-08-28T13:13:19.056Z,22.80
2022-08-28T13:15:52.609Z,26.77
2022-08-28T13:18:51.439Z,48.65
2022-08-28T13:21:37.205Z,46.65
2022-08-28T13:24:27.449Z,32.15
2022-08-28T13:27:06.768Z,27.27
2022-08-28T13:29:35.379Z,23.60
2022-08-28T13:32:07.781Z,27.52
2022-08-28T13:34:37.073Z,22.27
2022-08-28T13:37:14.706Z,22.67
2022-08-28T13:39:48.396Z,21.40
2022-08-28T13:42:18.309Z,19.52
2022-08-28T13:44:48.525Z,18.23
2022-08-28T13:47:17.955Z,32.13
2022-08-28T13:49:45.733Z,27.05
2022-08-28T13:52:13.900Z,22.88
2022-08-28T13:54:43.735Z,34.88
2022-08-28T13:57:13.609Z,42.92
2022-08-28T13:59:41.552Z,37.95
2022-08-28T14:02:30.468Z,19.25
2022-08-28T14:04:59.426Z,33.75
2022-08-28T14:07:27.019Z,18.77
2022-08-28T14:09:56.531Z,35.25
2022-08-28T14:12:32.849Z,26.45
2022-08-28T14:15:01.554Z,42.28
2022-08-28T14:17:29.149Z,45.28
2022-08-28T14:19:56.687Z,45.28
2022-08-28T14:22:25.521Z,43.45
2022-08-28T14:24:53.115Z,36.05
2022-08-28T14:27:20.870Z,38.40
2022-08-28T14:29:49.057Z,43.30
2022-08-28T14:32:16.650Z,28.77
2022-08-28T14:34:44.265Z,36.42
2022-08-28T14:37:11.770Z,60.03
2022-08-28T14:39:42.020Z,48.53
2022-08-28T14:42:13.064Z,54.00
2022-08-28T14:44:40.952Z,36.58
2022-08-28T14:47:08.709Z,23.90
2022-08-28T14:49:36.208Z,37.72
2022-08-28T14:52:04.594Z,23.48
2022-08-28T14:54:32.207Z,41.58
2022-08-28T14:57:01.056Z,26.02
2022-08-28T14:59:31.055Z,46.33
2022-08-28T15:02:00.249Z,48.85
2022-08-28T15:04:34.282Z,52.25
2022-08-28T15:07:05.432Z,49.70
2022-08-28T15:09:36.725Z,52.22
2022-08-28T15:12:06.148Z,49.47
2022-08-28T15:14:33.678Z,39.03
2022-08-28T15:17:01.315Z,33.17
2022-08-28T15:19:30.063Z,45.78
2022-08-28T15:21:58.575Z,58.75
2022-08-28T15:24:30.748Z,43.08
2022-08-28T15:26:59.631Z,40.30
2022-08-28T15:29:29.909Z,32.75
2022-08-28T15:31:59.034Z,21.58
2022-08-28T15:34:29.106Z,41.05
2022-08-28T15:36:58.014Z,54.97
2022-08-28T15:39:43.899Z,30.70
2022-08-28T15:42:11.416Z,42.95
2022-08-28T15:44:40.301Z,47.92
2022-08-28T15:47:08.621Z,48.60
2022-08-28T15:49:43.692Z,46.30
2022-08-28T15:52:18.192Z,45.05
2022-08-28T15:54:45.745Z,40.53
2022-08-28T15:57:13.400Z,49.50
2022-08-28T15:59:49.422Z,38.03
2022-08-28T16:02:18.832Z,41.05
2022-08-28T16:04:46.503Z,36.22
2022-08-28T16:07:14.001Z,52.05
2022-08-28T16:09:41.504Z,61.88
2022-08-28T16:12:12.495Z,50.60
2022-08-28T16:14:40.210Z,41.30
2022-08-28T16:17:11.169Z,49.38
2022-08-28T16:19:57.721Z,51.17
2022-08-28T16:22:25.258Z,38.50
2022-08-28T16:24:52.774Z,40.50
2022-08-28T16:27:20.599Z,52.75
2022-08-28T16:29:52.812Z,48.95
2022-08-28T16:32:22.925Z,47.17
2022-08-28T16:34:50.613Z,56.42
2022-08-28T16:37:19.597Z,53.38
2022-08-28T16:39:48.643Z,41.05
2022-08-28T16:42:17.239Z,54.60
2022-08-28T16:44:44.736Z,39.35
2022-08-28T16:47:12.306Z,34.55
2022-08-28T16:49:41.199Z,27.80
2022-08-28T16:52:08.763Z,50.70
2022-08-28T16:54:36.240Z,23.23
2022-08-28T16:57:03.745Z,44.65
2022-08-28T16:59:31.232Z,58.70
2022-08-28T17:01:58.802Z,54.33
2022-08-28T17:04:26.466Z,34.85
2022-08-28T17:06:56.361Z,29.13
2022-08-28T17:09:24.865Z,30.50
2022-08-28T17:11:52.535Z,32.88
2022-08-28T17:14:20.655Z,42.33
2022-08-28T17:16:48.702Z,64.55
2022-08-28T17:19:16.339Z,44.03
2022-08-28T17:22:01.879Z,51.85
2022-08-28T17:24:30.975Z,40.80
2022-08-28T17:27:00.925Z,45.53
2022-08-28T17:29:32.201Z,44.55
2022-08-28T17:31:59.729Z,30.58
2022-08-28T17:34:30.291Z,32.58
2022-08-28T17:36:58.141Z,39.22
2022-08-28T17:39:25.807Z,33.15
2022-08-28T17:41:54.724Z,32.88
2022-08-28T17:44:22.232Z,35.00
2022-08-28T17:46:51.709Z,40.55
2022-08-28T17:49:19.301Z,41.13
2022-08-28T17:51:46.864Z,46.13
2022-08-28T17:54:16.704Z,54.42
2022-08-28T17:56:44.876Z,52.22
2022-08-28T17:59:14.485Z,53.47
2022-08-28T18:01:43.262Z,51.58
2022-08-28T18:04:11.437Z,48.38
2022-08-28T18:06:39.364Z,53.78
2022-08-28T18:09:07.721Z,52.13
2022-08-28T18:11:35.448Z,53.63
2022-08-28T18:14:03.228Z,57.70
2022-08-28T18:16:34.323Z,67.90
2022-08-28T18:19:02.593Z,86.95
2022-08-28T18:21:30.380Z,84.18
2022-08-28T18:23:58.558Z,102.10
2022-08-28T18:26:26.389Z,93.20
2022-08-28T18:28:54.204Z,95.90
2022-08-28T18:31:21.786Z,92.10
2022-08-28T18:33:50.901Z,94.28
2022-08-28T18:36:18.826Z,97.53
2022-08-28T18:38:47.123Z,94.47
2022-08-28T18:41:14.665Z,97.78
2022-08-28T18:43:42.419Z,102.18
2022-08-28T18:46:10.441Z,105.90
2022-08-28T18:48:38.753Z,92.68
2022-08-28T18:51:08.594Z,87.93
2022-08-28T18:53:36.492Z,72.45
2022-08-28T18:56:05.383Z,65.65
2022-08-28T18:58:33.043Z,55.25
2022-08-28T19:01:02.114Z,65.35
2022-08-28T19:03:29.744Z,62.53
2022-08-28T19:05:57.493Z,55.20
2022-08-28T19:08:27.281Z,49.60
2022-08-28T19:10:55.058Z,43.60
2022-08-28T19:13:23.247Z,40.30
2022-08-28T19:15:52.443Z,43.70
2022-08-28T19:18:20.291Z,46.80
2022-08-28T19:20:48.049Z,52.67
2022-08-28T19:23:17.831Z,39.58
2022-08-28T19:25:48.378Z,39.20
2022-08-28T19:28:16.022Z,50.40
2022-08-28T19:30:43.674Z,41.22
2022-08-28T19:33:12.546Z,35.17
2022-08-28T19:35:40.061Z,48.20
2022-08-28T19:38:07.611Z,73.85
2022-08-28T19:40:35.524Z,57.95
2022-08-28T19:43:05.451Z,66.63
2022-08-28T19:45:34.037Z,61.78
2022-08-28T19:48:01.735Z,86.18
2022-08-28T19:50:29.278Z,114.72
2022-08-28T19:52:56.808Z,99.07
2022-08-28T19:55:28.771Z,82.45
2022-08-28T19:57:56.634Z,94.88
2022-08-28T20:00:29.160Z,101.82
2022-08-28T20:02:57.723Z,99.10
2022-08-28T20:05:25.946Z,99.75
2022-08-28T20:07:53.439Z,82.93
2022-08-28T20:10:21.361Z,102.72
2022-08-28T20:12:49.012Z,81.05
2022-08-28T20:15:18.611Z,99.53
2022-08-28T20:17:49.967Z,78.47
2022-08-28T20:20:19.337Z,95.57
2022-08-28T20:22:47.368Z,96.57
2022-08-28T20:25:15.628Z,111.22
2022-08-28T20:27:43.187Z,102.07
2022-08-28T20:30:12.210Z,92.55
2022-08-28T20:32:41.260Z,93.15
2022-08-28T20:35:12.855Z,96.53
2022-08-28T20:37:44.772Z,94.85
2022-08-28T20:40:15.852Z,102.13
2022-08-28T20:42:43.786Z,71.47
2022-08-28T20:45:12.585Z,83.32
2022-08-28T20:47:40.152Z,104.03
2022-08-28T20:50:08.674Z,51.50
2022-08-28T20:52:37.642Z,43.25
2022-08-28T20:55:07.516Z,53.28
2022-08-28T20:57:35.117Z,72.18
2022-08-28T21:00:05.638Z,38.90
2022-08-28T21:02:33.539Z,89.90
2022-08-28T21:05:01.605Z,65.15
2022-08-28T21:07:29.271Z,90.40
2022-08-28T21:10:05.761Z,92.68
2022-08-28T21:12:35.632Z,75.40
2022-08-28T21:15:03.507Z,87.78
2022-08-28T21:17:31.175Z,92.55
2022-08-28T21:20:01.036Z,67.28
2022-08-28T21:22:30.100Z,84.10
2022-08-28T21:24:59.468Z,73.30
2022-08-28T21:27:27.003Z,97.57
2022-08-28T21:29:56.075Z,91.95
2022-08-28T21:32:23.588Z,115.88
2022-08-28T21:34:51.258Z,97.63
2022-08-28T21:37:18.764Z,108.13
2022-08-28T21:39:46.273Z,99.93
2022-08-28T21:42:15.191Z,118.35
2022-08-28T21:44:51.647Z,94.10
2022-08-28T21:47:21.241Z,96.25
2022-08-28T21:49:49.329Z,115.20
2022-08-28T21:52:16.864Z,105.43
2022-08-28T21:54:44.398Z,116.47
2022-08-28T21:57:12.210Z,117.45
2022-08-28T21:59:41.394Z,130.10
2022-08-28T22:02:08.950Z,130.13
2022-08-28T22:04:36.916Z,118.57
2022-08-28T22:07:04.474Z,128.18
2022-08-28T22:09:31.997Z,99.53
2022-08-28T22:11:59.562Z,140.50
2022-08-28T22:14:28.458Z,150.80
2022-08-28T22:16:57.573Z,138.27
2022-08-28T22:19:25.106Z,120.97
2022-08-28T22:22:10.156Z,87.28
2022-08-28T22:24:37.952Z,130.32
2022-08-28T22:27:06.106Z,98.97
2022-08-28T22:29:36.486Z,96.75
2022-08-28T22:32:06.719Z,89.07
2022-08-28T22:34:38.626Z,102.82
2022-08-28T22:37:06.299Z,100.13
2022-08-28T22:39:33.890Z,110.05
2022-08-28T22:42:01.801Z,104.82
2022-08-28T22:44:29.532Z,94.47
2022-08-28T22:46:57.128Z,95.60
2022-08-28T22:49:26.104Z,101.13
2022-08-28T22:51:53.706Z,107.47
2022-08-28T22:54:21.431Z,102.70
2022-08-28T22:56:48.965Z,111.32
2022-08-28T22:59:16.624Z,93.53
2022-08-28T23:01:44.175Z,100.40
2022-08-28T23:04:12.194Z,97.45
2022-08-28T23:06:41.080Z,104.88
2022-08-28T23:09:09.452Z,98.35
2022-08-28T23:11:37.972Z,95.60
2022-08-28T23:14:06.418Z,83.40
2022-08-28T23:16:35.370Z,119.07
2022-08-28T23:19:13.376Z,89.95
2022-08-28T23:21:44.254Z,89.40
2022-08-28T23:24:12.527Z,96.43
2022-08-28T23:26:40.208Z,113.75
2022-08-28T23:29:07.739Z,106.90
2022-08-28T23:31:35.709Z,98.97
2022-08-28T23:34:03.313Z,88.88
2022-08-28T23:36:32.750Z,97.10
2022-08-28T23:39:04.913Z,92.70
2022-08-28T23:41:33.095Z,87.78
2022-08-28T23:44:03.199Z,87.30
2022-08-28T23:46:33.557Z,108.32
2022-08-28T23:49:01.154Z,106.82
2022-08-28T23:51:29.516Z,87.55
2022-08-28T23:53:57.051Z,99.97
2022-08-28T23:56:28.235Z,107.85
2022-08-28T23:58:55.927Z,87.60
